Time;durP1;ratioP1;P1;durP2;ratioP2;P2;SDS_P1;SDS_P2;PMS_P1;PMS_P2;Temp;Humidity;BMP_temperature;BMP_pressure;BME280_temperature;BME280_humidity;BME280_pressure;Samples;Min_cycle;Max_cycle;Signal;HPM_P1;HPM_P2
2023/10/04 00:01:39;;;;;;;2.88;1.70;;;16.00;65.70;;;;;;5058594;28;20035;-60
2023/10/04 00:04:05;;;;;;;5.32;1.88;;;16.00;65.70;;;;;;5052593;28;20021;-61
2023/10/04 00:06:31;;;;;;;3.67;1.88;;;16.00;65.80;;;;;;5064678;28;20051;-61
2023/10/04 00:09:04;;;;;;;1.83;1.38;;;16.00;65.80;;;;;;5060409;28;20394;-63
2023/10/04 00:11:31;;;;;;;3.42;1.67;;;15.90;65.80;;;;;;5060922;28;20399;-61
2023/10/04 00:13:57;;;;;;;3.22;1.60;;;15.90;65.80;;;;;;5066882;28;20055;-60
2023/10/04 00:16:22;;;;;;;3.08;1.48;;;15.90;66.00;;;;;;5055680;28;20358;-61
2023/10/04 00:18:49;;;;;;;8.38;1.95;;;15.90;66.00;;;;;;5063972;28;20039;-60
2023/10/04 00:21:15;;;;;;;2.78;1.67;;;15.80;66.00;;;;;;5060612;28;20020;-61
2023/10/04 00:23:41;;;;;;;5.63;1.60;;;15.80;66.10;;;;;;5066373;28;20024;-61
2023/10/04 00:26:08;;;;;;;3.65;2.10;;;15.80;66.20;;;;;;5058704;28;20032;-61
2023/10/04 00:28:34;;;;;;;2.42;1.73;;;15.80;66.20;;;;;;5060528;28;20024;-61
2023/10/04 00:31:00;;;;;;;3.75;1.85;;;15.80;66.20;;;;;;5059551;28;20067;-60
2023/10/04 00:33:26;;;;;;;2.55;1.65;;;15.80;66.20;;;;;;5061405;28;20028;-61
2023/10/04 00:35:52;;;;;;;3.60;1.60;;;15.80;66.20;;;;;;5067045;28;20036;-60
2023/10/04 00:38:20;;;;;;;2.53;1.60;;;15.80;66.30;;;;;;5064766;28;20398;-62
2023/10/04 00:40:47;;;;;;;3.00;1.50;;;15.80;66.30;;;;;;5065694;28;20032;-62
2023/10/04 00:43:14;;;;;;;5.15;2.08;;;15.80;66.20;;;;;;5068537;28;20021;-61
2023/10/04 00:45:44;;;;;;;3.65;2.00;;;15.80;66.30;;;;;;5066270;28;20025;-61
2023/10/04 00:48:15;;;;;;;4.93;1.60;;;15.70;66.30;;;;;;5062651;28;20062;-59
2023/10/04 00:50:41;;;;;;;4.85;1.88;;;15.70;66.20;;;;;;5064147;28;20503;-61
2023/10/04 00:53:08;;;;;;;3.33;1.73;;;15.70;66.20;;;;;;5061789;28;20021;-60
2023/10/04 00:55:39;;;;;;;3.03;1.58;;;15.60;66.10;;;;;;5055359;28;20028;-61
2023/10/04 00:58:06;;;;;;;4.43;1.88;;;15.60;66.00;;;;;;5066310;28;20043;-60
2023/10/04 01:00:32;;;;;;;2.38;1.63;;;15.60;66.10;;;;;;5057462;28;20029;-61
2023/10/04 01:02:58;;;;;;;2.80;1.85;;;15.50;66.10;;;;;;5060977;28;20556;-61
2023/10/04 01:05:26;;;;;;;5.03;1.83;;;15.50;66.10;;;;;;5059532;28;20032;-62
2023/10/04 01:07:59;;;;;;;3.08;1.88;;;15.40;66.00;;;;;;5062857;28;20414;-60
2023/10/04 01:10:26;;;;;;;4.03;1.50;;;15.40;66.00;;;;;;5066289;28;20504;-61
2023/10/04 01:12:52;;;;;;;3.13;1.48;;;15.30;65.80;;;;;;5062508;28;20052;-61
2023/10/04 01:15:31;;;;;;;2.63;1.77;;;15.30;65.90;;;;;;5068905;28;20033;-60
2023/10/04 01:17:58;;;;;;;2.92;1.70;;;15.20;66.00;;;;;;5063790;28;20021;-60
2023/10/04 01:20:25;;;;;;;2.28;1.40;;;15.10;66.00;;;;;;5067344;28;20047;-60
2023/10/04 01:23:00;;;;;;;2.83;1.63;;;15.10;66.20;;;;;;5064013;28;20081;-60
2023/10/04 01:25:27;;;;;;;2.08;1.45;;;15.10;66.50;;;;;;5058891;28;20492;-60
2023/10/04 01:27:54;;;;;;;2.38;1.55;;;15.00;66.30;;;;;;5060689;28;20029;-60
2023/10/04 01:30:20;;;;;;;3.25;1.73;;;14.90;66.40;;;;;;5068433;28;20035;-61
2023/10/04 01:32:50;;;;;;;5.03;2.25;;;14.90;66.40;;;;;;5065223;28;20039;-62
2023/10/04 01:35:22;;;;;;;3.15;1.70;;;14.90;66.50;;;;;;5060137;28;20037;-62
2023/10/04 01:37:48;;;;;;;8.40;2.40;;;14.90;66.60;;;;;;5062249;28;20024;-62
2023/10/04 01:40:14;;;;;;;4.80;1.75;;;14.80;66.70;;;;;;5062773;28;20395;-61
2023/10/04 01:42:45;;;;;;;3.20;1.70;;;14.80;66.80;;;;;;5061481;28;20108;-62
2023/10/04 01:45:12;;;;;;;3.88;1.98;;;14.80;67.10;;;;;;5066427;28;20058;-61
2023/10/04 01:47:41;;;;;;;4.03;1.80;;;14.70;66.70;;;;;;5068544;28;20028;-62
2023/10/04 01:50:09;;;;;;;4.13;1.77;;;14.70;66.70;;;;;;5060783;28;20036;-61
2023/10/04 01:52:36;;;;;;;2.83;1.73;;;14.70;66.60;;;;;;5059299;28;20571;-61
2023/10/04 01:55:05;;;;;;;3.92;2.17;;;14.70;66.60;;;;;;5054845;28;20025;-61
2023/10/04 01:57:34;;;;;;;3.30;1.80;;;14.60;66.70;;;;;;5063150;28;20028;-61
2023/10/04 02:00:01;;;;;;;2.95;1.95;;;14.60;67.50;;;;;;5062774;28;20021;-61
2023/10/04 02:02:27;;;;;;;4.78;2.08;;;14.60;66.80;;;;;;5062350;28;20017;-61
2023/10/04 02:04:53;;;;;;;2.33;1.92;;;14.50;66.90;;;;;;5051842;28;20386;-62
2023/10/04 02:07:23;;;;;;;5.63;2.10;;;14.50;67.00;;;;;;5062167;28;20081;-62
2023/10/04 02:09:52;;;;;;;3.75;1.50;;;14.40;67.10;;;;;;5064482;28;20391;-60
2023/10/04 02:12:18;;;;;;;3.03;1.60;;;14.40;66.80;;;;;;5059818;28;20059;-62
2023/10/04 02:14:48;;;;;;;3.03;1.60;;;14.40;66.60;;;;;;5062966;28;20040;-63
2023/10/04 02:17:17;;;;;;;4.05;1.67;;;14.30;66.10;;;;;;5058734;28;20064;-60
2023/10/04 02:19:46;;;;;;;3.30;1.60;;;14.30;66.60;;;;;;5065937;28;20020;-61
2023/10/04 02:22:15;;;;;;;4.03;2.20;;;14.30;66.70;;;;;;5066262;28;20024;-61
2023/10/04 02:24:41;;;;;;;3.15;1.70;;;14.20;66.50;;;;;;5069700;28;20111;-61
2023/10/04 02:27:07;;;;;;;5.05;1.70;;;14.10;66.50;;;;;;5065909;28;20128;-61
2023/10/04 02:29:34;;;;;;;4.75;2.10;;;14.10;66.60;;;;;;5067125;28;20043;-61
2023/10/04 02:32:06;;;;;;;3.63;1.70;;;14.10;66.70;;;;;;5056347;28;20028;-61
2023/10/04 02:34:32;;;;;;;4.45;2.15;;;14.00;66.60;;;;;;5061923;28;20036;-62
2023/10/04 02:36:57;;;;;;;3.33;1.58;;;14.00;66.70;;;;;;5053655;28;20086;-62
2023/10/04 02:39:24;;;;;;;3.65;1.92;;;13.90;66.70;;;;;;5071378;28;20039;-62
2023/10/04 02:41:49;;;;;;;4.03;1.73;;;13.90;66.70;;;;;;5059880;28;20108;-60
2023/10/04 02:44:17;;;;;;;3.63;1.77;;;13.90;66.80;;;;;;5064344;28;20103;-61
2023/10/04 02:46:45;;;;;;;3.95;1.85;;;13.80;66.80;;;;;;5062685;28;20062;-62
2023/10/04 02:49:11;;;;;;;6.88;1.98;;;13.70;66.70;;;;;;5060081;28;20029;-61
2023/10/04 02:51:36;;;;;;;8.55;1.60;;;13.70;66.70;;;;;;5065955;28;20530;-62
2023/10/04 02:54:04;;;;;;;4.00;1.50;;;13.70;66.70;;;;;;5066189;28;20074;-62
2023/10/04 02:56:32;;;;;;;2.33;1.60;;;13.60;66.60;;;;;;5065821;28;20029;-62
2023/10/04 02:58:58;;;;;;;3.97;1.40;;;13.60;66.70;;;;;;5063629;28;20066;-62
2023/10/04 03:01:26;;;;;;;1.95;1.50;;;13.50;66.70;;;;;;5052362;28;20033;-62
2023/10/04 03:03:52;;;;;;;3.13;1.60;;;13.50;66.80;;;;;;5057585;28;20017;-63
2023/10/04 03:06:23;;;;;;;2.72;1.60;;;13.40;66.90;;;;;;5061080;28;20032;-62
2023/10/04 03:08:51;;;;;;;3.28;1.65;;;13.30;67.00;;;;;;5070466;28;20028;-61
2023/10/04 03:11:17;;;;;;;2.67;1.77;;;13.30;67.00;;;;;;5069091;28;20036;-62
2023/10/04 03:13:43;;;;;;;3.72;1.80;;;13.30;67.00;;;;;;5061938;28;20036;-64
2023/10/04 03:16:09;;;;;;;5.40;1.88;;;13.20;67.00;;;;;;5065759;28;20017;-62
2023/10/04 03:18:37;;;;;;;4.03;1.90;;;13.20;67.10;;;;;;5070791;28;20059;-61
2023/10/04 03:23:40;;;;;;;5.68;1.80;;;13.10;67.50;;;;;;5067135;28;20090;-61
2023/10/04 03:26:06;;;;;;;3.85;2.03;;;13.10;67.60;;;;;;5065697;28;20028;-61
2023/10/04 03:28:37;;;;;;;3.92;1.95;;;13.10;67.60;;;;;;5065022;28;20037;-61
2023/10/04 03:31:14;;;;;;;3.15;1.80;;;13.00;67.80;;;;;;5056702;28;20032;-60
2023/10/04 03:33:40;;;;;;;3.88;1.73;;;13.00;67.70;;;;;;5070715;28;20386;-61
2023/10/04 03:36:06;;;;;;;2.63;1.77;;;13.00;67.60;;;;;;5066961;28;20033;-61
2023/10/04 03:38:34;;;;;;;4.85;1.80;;;12.90;67.30;;;;;;5070846;28;20082;-61
2023/10/04 03:41:03;;;;;;;3.67;1.70;;;12.90;67.00;;;;;;5067411;28;20105;-62
2023/10/04 03:43:29;;;;;;;2.90;1.60;;;12.90;67.10;;;;;;5064662;28;20028;-62
2023/10/04 03:45:55;;;;;;;2.58;1.75;;;12.80;67.00;;;;;;5065003;28;20078;-61
2023/10/04 03:48:23;;;;;;;3.60;1.67;;;12.80;67.10;;;;;;5066748;28;20045;-61
2023/10/04 03:50:50;;;;;;;2.45;1.77;;;12.70;67.10;;;;;;5067523;28;20127;-61
2023/10/04 03:53:20;;;;;;;6.60;1.67;;;12.70;67.20;;;;;;5067378;28;20063;-61
2023/10/04 03:55:46;;;;;;;3.20;1.60;;;12.60;67.20;;;;;;5059705;28;20532;-61
2023/10/04 03:58:16;;;;;;;2.28;1.80;;;12.60;67.20;;;;;;5063701;28;20024;-61
2023/10/04 04:00:42;;;;;;;2.97;1.50;;;12.60;67.20;;;;;;5059679;28;20025;-61
2023/10/04 04:03:09;;;;;;;2.95;1.60;;;12.50;67.20;;;;;;5070337;28;20104;-62
2023/10/04 04:05:41;;;;;;;3.35;1.70;;;12.50;67.30;;;;;;5071272;28;20052;-60
2023/10/04 04:08:13;;;;;;;3.13;1.70;;;12.40;67.50;;;;;;5067578;28;20107;-60
2023/10/04 04:10:43;;;;;;;3.67;1.80;;;12.40;67.60;;;;;;5065370;28;20516;-61
2023/10/04 04:13:09;;;;;;;4.75;1.85;;;12.40;67.70;;;;;;5061672;28;20048;-61
2023/10/04 04:15:35;;;;;;;3.47;2.22;;;12.30;67.80;;;;;;5067662;28;20068;-61
2023/10/04 04:21:00;;;;;;;2.53;1.85;;;12.30;68.10;;;;;;5054660;28;20124;-60
2023/10/04 04:23:25;;;;;;;6.70;2.10;;;12.20;67.90;;;;;;5063861;28;20134;-61
2023/10/04 04:25:51;;;;;;;2.45;1.70;;;12.20;68.00;;;;;;5056247;28;20028;-60
2023/10/04 04:28:20;;;;;;;2.55;1.90;;;12.20;68.00;;;;;;5060616;28;20056;-61
2023/10/04 04:30:47;;;;;;;3.78;1.75;;;12.20;67.90;;;;;;5055888;28;20032;-62
2023/10/04 04:33:16;;;;;;;2.83;1.88;;;12.10;67.70;;;;;;5064828;28;20031;-61
2023/10/04 04:38:16;;;;;;;3.33;1.75;;;12.10;67.60;;;;;;5061895;28;20062;-60
2023/10/04 04:40:48;;;;;;;4.43;2.00;;;12.00;67.70;;;;;;5058658;28;20514;-61
2023/10/04 04:45:53;;;;;;;3.92;2.10;;;12.00;68.10;;;;;;4989450;28;20499;-61
2023/10/04 04:48:24;;;;;;;3.05;2.00;;;11.90;67.80;;;;;;5066856;28;20380;-60
2023/10/04 04:50:57;;;;;;;2.85;1.73;;;11.90;68.00;;;;;;5057979;28;20029;-61
2023/10/04 04:53:27;;;;;;;4.55;2.10;;;11.90;68.60;;;;;;5066145;28;20024;-60
2023/10/04 04:55:54;;;;;;;2.72;2.03;;;11.90;68.30;;;;;;5065898;28;20334;-60
2023/10/04 04:58:23;;;;;;;3.90;1.95;;;11.90;68.50;;;;;;5059542;28;20541;-60
2023/10/04 05:00:50;;;;;;;4.57;2.42;;;11.80;68.50;;;;;;5067800;28;20542;-61
2023/10/04 05:03:17;;;;;;;2.88;2.28;;;11.80;68.50;;;;;;5060073;28;20036;-60
2023/10/04 05:05:42;;;;;;;4.38;2.63;;;11.80;68.60;;;;;;5065524;28;20477;-60
2023/10/04 05:08:08;;;;;;;7.28;2.60;;;11.80;68.50;;;;;;5064659;28;20025;-59
2023/10/04 05:10:38;;;;;;;4.68;2.85;;;11.70;68.20;;;;;;5063301;28;20040;-61
2023/10/04 05:13:07;;;;;;;5.82;3.83;;;11.70;68.20;;;;;;5058932;28;20183;-61
2023/10/04 05:15:35;;;;;;;5.97;4.13;;;11.70;68.10;;;;;;5061251;28;20035;-61
2023/10/04 05:18:04;;;;;;;5.57;3.45;;;11.70;68.30;;;;;;5066965;28;20020;-61
2023/10/04 05:20:31;;;;;;;3.72;2.60;;;11.60;68.20;;;;;;5060955;28;20029;-59
2023/10/04 05:22:58;;;;;;;4.45;2.83;;;11.60;68.20;;;;;;5068915;28;20024;-60
2023/10/04 05:25:24;;;;;;;3.78;2.70;;;11.60;68.40;;;;;;5070134;28;20028;-61
2023/10/04 05:27:49;;;;;;;5.10;2.92;;;11.60;68.40;;;;;;5063159;28;20483;-61
2023/10/04 05:30:18;;;;;;;6.15;3.25;;;11.60;68.50;;;;;;5068772;28;20036;-60
2023/10/04 05:32:46;;;;;;;5.63;2.42;;;11.60;68.60;;;;;;5071842;28;20070;-61
2023/10/04 05:35:14;;;;;;;11.65;3.63;;;11.50;68.70;;;;;;5068674;28;20020;-61
2023/10/04 05:37:44;;;;;;;10.57;4.97;;;11.50;68.60;;;;;;5066685;28;20062;-60
2023/10/04 05:40:16;;;;;;;11.98;7.18;;;11.50;68.90;;;;;;5060506;28;20558;-60
2023/10/04 05:42:44;;;;;;;14.25;6.72;;;11.50;68.90;;;;;;5060633;28;20028;-61
2023/10/04 05:45:14;;;;;;;10.40;5.60;;;11.50;69.00;;;;;;5066054;28;20077;-60
2023/10/04 05:47:40;;;;;;;8.82;4.28;;;11.50;69.10;;;;;;5068797;28;20028;-60
2023/10/04 05:50:10;;;;;;;5.53;3.60;;;11.50;69.00;;;;;;5065821;28;20036;-61
2023/10/04 05:52:39;;;;;;;9.73;3.67;;;11.50;69.10;;;;;;5062092;28;20024;-61
2023/10/04 05:55:08;;;;;;;6.78;2.55;;;11.50;69.00;;;;;;5058301;28;20028;-60
2023/10/04 05:57:37;;;;;;;5.50;2.72;;;11.50;69.00;;;;;;5061890;28;20020;-60
2023/10/04 06:00:26;;;;;;;7.25;2.75;;;11.50;69.30;;;;;;5065192;28;20020;-60
2023/10/04 06:03:00;;;;;;;4.53;2.50;;;11.50;69.50;;;;;;5063553;28;20599;-60
2023/10/04 06:05:31;;;;;;;3.85;2.53;;;11.50;69.60;;;;;;5065285;28;20020;-59
2023/10/04 06:07:57;;;;;;;3.17;2.28;;;11.50;69.50;;;;;;5064288;28;20028;-62
2023/10/04 06:10:26;;;;;;;4.05;2.50;;;11.60;69.50;;;;;;5060882;28;20422;-62
2023/10/04 06:12:53;;;;;;;4.78;2.35;;;11.70;69.80;;;;;;5059539;28;20060;-60
2023/10/04 06:15:20;;;;;;;4.18;2.38;;;11.70;69.80;;;;;;5066958;28;20032;-60
2023/10/04 06:17:47;;;;;;;3.63;2.15;;;11.70;70.00;;;;;;5061891;28;20479;-60
2023/10/04 06:20:33;;;;;;;5.97;2.50;;;11.70;70.00;;;;;;5053792;28;20025;-60
2023/10/04 06:23:05;;;;;;;3.42;2.42;;;11.80;70.00;;;;;;5064101;28;20050;-60
2023/10/04 06:25:32;;;;;;;4.15;2.08;;;11.90;70.00;;;;;;5057066;28;20070;-60
2023/10/04 06:27:59;;;;;;;8.48;2.35;;;12.00;70.30;;;;;;5060933;28;20797;-62
2023/10/04 06:30:27;;;;;;;3.65;2.00;;;12.00;70.40;;;;;;5064933;28;20037;-60
2023/10/04 06:33:01;;;;;;;4.18;2.28;;;12.10;70.50;;;;;;5066993;28;20036;-61
2023/10/04 06:35:27;;;;;;;;;;;12.20;70.90;;;;;;5055875;28;20039;-60
2023/10/04 06:37:58;;;;;;;5.20;1.85;;;12.30;70.90;;;;;;5059086;28;19913;-61
2023/10/04 06:40:25;;;;;;;4.82;1.90;;;12.40;70.10;;;;;;5065525;28;20113;-60
2023/10/04 06:42:52;;;;;;;7.13;2.28;;;12.50;70.00;;;;;;5070210;28;20023;-61
2023/10/04 06:45:22;;;;;;;5.57;1.88;;;12.50;69.90;;;;;;5069866;28;20364;-60
2023/10/04 06:47:49;;;;;;;2.70;2.20;;;12.60;69.90;;;;;;5069178;28;20137;-61
2023/10/04 06:50:20;;;;;;;4.00;2.17;;;12.70;69.90;;;;;;5064996;28;20038;-61
2023/10/04 06:52:50;;;;;;;5.80;1.95;;;12.70;69.80;;;;;;5061132;28;20427;-61
2023/10/04 06:55:18;;;;;;;4.72;1.80;;;12.80;69.90;;;;;;5061791;28;20357;-61
2023/10/04 06:57:44;;;;;;;7.65;1.80;;;12.90;70.00;;;;;;5060018;28;20024;-62
2023/10/04 07:00:15;;;;;;;2.78;1.88;;;13.00;70.00;;;;;;5056912;28;20074;-60
2023/10/04 07:02:45;;;;;;;4.40;2.08;;;13.00;70.00;;;;;;5058382;28;20386;-62
2023/10/04 07:05:19;;;;;;;3.03;1.95;;;13.10;70.00;;;;;;5047337;28;20085;-62
2023/10/04 07:07:49;;;;;;;3.75;2.08;;;13.20;70.10;;;;;;5057051;28;20754;-61
2023/10/04 07:10:18;;;;;;;3.35;2.17;;;13.30;69.90;;;;;;5064357;28;20090;-61
2023/10/04 07:12:46;;;;;;;5.35;1.90;;;13.40;69.80;;;;;;5063657;28;20090;-61
2023/10/04 07:15:13;;;;;;;7.05;2.03;;;13.50;70.00;;;;;;5061604;28;20077;-62
2023/10/04 07:17:40;;;;;;;5.97;2.30;;;13.60;70.00;;;;;;5071894;28;20036;-62
2023/10/04 07:32:26;;;;;;;9.73;2.28;;;13.80;70.20;;;;;;4851112;22;2530099;-96
2023/10/04 07:34:53;;;;;;;7.18;2.65;;;13.70;70.50;;;;;;5042124;28;20030;-95
2023/10/04 07:37:18;;;;;;;5.03;2.22;;;13.80;70.90;;;;;;5006551;28;20038;-96
2023/10/04 07:39:44;;;;;;;8.00;2.42;;;14.00;71.00;;;;;;5006267;28;20044;-96
2023/10/04 07:42:10;;;;;;;3.58;1.80;;;14.20;70.90;;;;;;5012466;28;20045;-95
2023/10/04 07:44:37;;;;;;;4.05;2.20;;;14.50;70.70;;;;;;5012146;28;20034;-96
2023/10/04 07:47:03;;;;;;;6.50;2.22;;;14.70;70.30;;;;;;5015078;28;20033;-96
2023/10/04 07:49:29;;;;;;;5.47;2.60;;;14.90;70.00;;;;;;5002267;28;20421;-95
2023/10/04 07:51:56;;;;;;;3.15;2.05;;;15.10;69.80;;;;;;5018457;28;20384;-96
2023/10/04 07:54:22;;;;;;;3.88;2.28;;;15.30;69.50;;;;;;5020505;28;20084;-95
2023/10/04 07:56:49;;;;;;;4.65;2.20;;;15.50;69.30;;;;;;5018225;28;20029;-96
2023/10/04 07:59:17;;;;;;;4.22;2.17;;;15.70;69.10;;;;;;5019106;28;20097;-94
2023/10/04 08:01:43;;;;;;;5.78;2.60;;;15.90;68.90;;;;;;5015402;28;20030;-95
2023/10/04 08:04:09;;;;;;;3.72;2.00;;;16.00;68.70;;;;;;5009970;28;20037;-94
2023/10/04 08:06:49;;;;;;;5.30;2.05;;;16.30;68.40;;;;;;5012069;28;20026;-95
2023/10/04 08:09:15;;;;;;;5.32;1.80;;;16.40;67.90;;;;;;5020954;28;20088;-96
2023/10/04 08:11:41;;;;;;;4.20;2.00;;;16.60;67.50;;;;;;5017784;28;20041;-95
2023/10/04 08:14:07;;;;;;;4.28;2.30;;;16.80;66.80;;;;;;5016744;28;20025;-96
2023/10/04 08:16:37;;;;;;;3.47;1.98;;;16.90;66.20;;;;;;5022329;28;20032;-96
2023/10/04 08:19:05;;;;;;;7.07;2.17;;;17.10;65.30;;;;;;5023696;28;20039;-96
2023/10/04 08:21:34;;;;;;;4.05;2.10;;;17.30;65.00;;;;;;5007973;28;20430;-96
2023/10/04 08:24:01;;;;;;;4.20;1.85;;;17.40;63.90;;;;;;5023837;28;20117;-96
2023/10/04 08:26:31;;;;;;;3.33;1.85;;;17.50;63.30;;;;;;5008646;28;20034;-96
2023/10/04 08:29:01;;;;;;;5.00;2.13;;;17.60;62.90;;;;;;5009044;28;20038;-96
2023/10/04 08:31:27;;;;;;;4.38;2.00;;;17.90;61.50;;;;;;5023449;28;20064;-95
2023/10/04 08:33:56;;;;;;;4.95;2.10;;;17.80;60.90;;;;;;5036295;28;20080;-96
2023/10/04 08:36:39;;;;;;;3.90;1.83;;;17.90;60.20;;;;;;5054906;28;20024;-96
2023/10/04 08:39:10;;;;;;;2.63;1.58;;;18.10;60.80;;;;;;5060630;28;20029;-94
2023/10/04 08:41:37;;;;;;;3.60;2.20;;;17.90;60.10;;;;;;5064036;22;20052;-62
2023/10/04 08:44:05;;;;;;;3.70;1.88;;;18.00;58.50;;;;;;5061428;28;20029;-62
2023/10/04 08:46:31;;;;;;;5.13;1.80;;;18.10;59.30;;;;;;5055477;28;20336;-61
2023/10/04 08:49:00;;;;;;;5.53;1.90;;;18.00;59.40;;;;;;5064067;28;20065;-61
2023/10/04 08:51:42;;;;;;;3.72;1.85;;;18.10;59.30;;;;;;5059473;28;20056;-62
2023/10/04 08:54:13;;;;;;;3.42;1.77;;;18.20;57.30;;;;;;5062853;28;20032;-61
2023/10/04 08:57:05;;;;;;;4.15;1.80;;;18.30;58.20;;;;;;5061077;28;22254;-61
2023/10/04 08:59:33;;;;;;;3.33;1.50;;;18.40;57.20;;;;;;5056020;28;20032;-61
2023/10/04 09:02:01;;;;;;;4.22;1.83;;;18.40;58.20;;;;;;5062842;28;20040;-61
2023/10/04 09:04:27;;;;;;;4.13;2.00;;;18.50;58.10;;;;;;5064591;28;20029;-61
2023/10/04 09:06:53;;;;;;;4.38;1.73;;;18.60;58.10;;;;;;5064473;28;20420;-61
2023/10/04 09:09:19;;;;;;;4.25;1.45;;;18.70;57.20;;;;;;5065595;28;20037;-61
2023/10/04 09:11:45;;;;;;;6.47;1.95;;;18.70;56.20;;;;;;5062678;28;20103;-62
2023/10/04 09:14:15;;;;;;;9.50;2.08;;;18.70;56.00;;;;;;5056474;28;20025;-62
2023/10/04 09:16:40;;;;;;;5.75;1.92;;;18.70;56.00;;;;;;5060444;28;20020;-61
2023/10/04 09:19:16;;;;;;;6.95;2.00;;;18.70;55.00;;;;;;5063716;28;20396;-61
2023/10/04 09:21:43;;;;;;;4.95;1.80;;;18.70;54.50;;;;;;5063635;28;20036;-61
2023/10/04 09:24:09;;;;;;;4.97;1.60;;;18.70;54.80;;;;;;5051687;28;20056;-62
2023/10/04 09:26:36;;;;;;;3.45;1.60;;;18.70;55.10;;;;;;5058970;28;20033;-61
2023/10/04 09:29:04;;;;;;;5.57;1.80;;;18.70;54.90;;;;;;5069678;28;20391;-62
2023/10/04 09:31:30;;;;;;;7.35;1.77;;;18.70;54.70;;;;;;5058091;28;20082;-61
2023/10/04 09:34:13;;;;;;;4.20;1.58;;;18.80;55.40;;;;;;5064915;28;20115;-62
2023/10/04 09:36:40;;;;;;;4.68;1.50;;;18.90;54.40;;;;;;5068415;28;20020;-61
2023/10/04 09:39:08;;;;;;;5.47;1.75;;;18.90;54.80;;;;;;4950731;28;20064;-62
2023/10/04 09:41:41;;;;;;;3.78;1.63;;;18.90;54.60;;;;;;5057677;28;20044;-62
2023/10/04 09:44:20;;;;;;;2.25;1.25;;;19.00;54.30;;;;;;5064241;28;20464;-61
2023/10/04 09:46:50;;;;;;;6.90;1.40;;;19.10;53.50;;;;;;5060052;28;20028;-61
2023/10/04 09:49:16;;;;;;;3.75;1.50;;;19.10;53.90;;;;;;5065776;28;20070;-61
2023/10/04 09:51:45;;;;;;;4.07;1.52;;;19.20;54.30;;;;;;5065237;28;20037;-62
2023/10/04 09:54:11;;;;;;;4.95;1.50;;;19.30;53.70;;;;;;5063696;28;20024;-61
2023/10/04 09:56:49;;;;;;;4.47;1.70;;;19.50;54.20;;;;;;5065645;28;20031;-62
2023/10/04 09:59:19;;;;;;;4.20;1.40;;;19.60;52.90;;;;;;5062862;28;20470;-62
2023/10/04 10:01:56;;;;;;;4.43;1.52;;;19.70;52.60;;;;;;5060412;28;20017;-61
2023/10/04 10:04:26;;;;;;;3.65;1.70;;;19.70;51.80;;;;;;5068271;28;20518;-62
2023/10/04 10:07:11;;;;;;;5.32;1.30;;;19.70;50.90;;;;;;5062135;28;20488;-62
2023/10/04 10:10:04;;;;;;;3.75;1.50;;;19.70;51.20;;;;;;5059624;28;20069;-61
2023/10/04 10:12:32;;;;;;;2.25;1.40;;;19.60;51.30;;;;;;5065758;28;20033;-62
2023/10/04 10:15:01;;;;;;;3.22;1.35;;;19.60;50.90;;;;;;5068472;28;20046;-61
2023/10/04 10:17:28;;;;;;;4.82;1.60;;;19.60;51.70;;;;;;5063506;28;20506;-61
2023/10/04 10:19:56;;;;;;;3.20;1.20;;;19.60;51.20;;;;;;5066089;28;20025;-62
2023/10/04 10:22:22;;;;;;;5.05;1.58;;;19.60;51.40;;;;;;5067101;28;20024;-61
2023/10/04 10:25:14;;;;;;;4.15;1.50;;;19.70;51.50;;;;;;5056202;28;20074;-62
2023/10/04 10:27:41;;;;;;;4.65;1.73;;;19.70;49.80;;;;;;5062468;28;20028;-61
2023/10/04 10:30:08;;;;;;;5.38;1.63;;;19.70;50.50;;;;;;5062018;28;20037;-61
2023/10/04 10:32:34;;;;;;;3.58;1.35;;;19.70;51.00;;;;;;5065848;28;20039;-61
2023/10/04 10:35:04;;;;;;;3.70;1.80;;;19.80;51.50;;;;;;5062690;28;20108;-61
2023/10/04 10:37:38;;;;;;;3.53;1.70;;;19.80;50.70;;;;;;5064424;28;20028;-61
2023/10/04 10:40:24;;;;;;;7.55;1.58;;;19.90;50.30;;;;;;5064655;28;20074;-62
2023/10/04 10:43:09;;;;;;;4.20;1.60;;;19.90;51.00;;;;;;5065083;28;20077;-62
2023/10/04 10:45:34;;;;;;;6.38;1.40;;;20.00;49.80;;;;;;5058849;28;20492;-61
2023/10/04 10:48:06;;;;;;;3.97;1.63;;;20.10;50.00;;;;;;5065144;28;20027;-62
2023/10/04 10:50:37;;;;;;;4.63;1.42;;;20.10;50.40;;;;;;5071001;28;20503;-62
2023/10/04 10:53:10;;;;;;;6.70;2.28;;;20.20;49.80;;;;;;5067932;28;20516;-62
2023/10/04 10:55:36;;;;;;;5.63;1.85;;;20.30;50.00;;;;;;5061666;28;20591;-62
2023/10/04 10:58:02;;;;;;;4.35;1.60;;;20.40;49.60;;;;;;5066407;28;20025;-61
2023/10/04 11:00:34;;;;;;;7.03;1.70;;;20.40;49.70;;;;;;5062215;28;20028;-62
2023/10/04 11:03:04;;;;;;;2.25;1.48;;;20.50;49.20;;;;;;5063883;28;20031;-61
2023/10/04 11:05:31;;;;;;;5.47;1.73;;;20.50;49.10;;;;;;5050766;28;20056;-62
2023/10/04 11:07:57;;;;;;;3.75;1.60;;;20.50;49.40;;;;;;5066667;28;20028;-61
2023/10/04 11:10:25;;;;;;;5.00;1.65;;;20.60;49.70;;;;;;5069808;28;20097;-61
2023/10/04 11:12:54;;;;;;;3.58;1.92;;;20.70;49.20;;;;;;5064252;28;20038;-61
2023/10/04 11:15:23;;;;;;;3.92;2.20;;;20.70;48.90;;;;;;5058676;28;20095;-61
2023/10/04 11:17:52;;;;;;;7.55;2.10;;;20.70;49.80;;;;;;5059583;28;20103;-61
2023/10/04 11:20:18;;;;;;;3.90;1.70;;;20.70;49.20;;;;;;5066490;28;20039;-62
2023/10/04 11:22:45;;;;;;;4.30;1.63;;;20.70;49.50;;;;;;5064262;28;20020;-62
2023/10/04 11:25:13;;;;;;;6.57;2.10;;;20.80;49.70;;;;;;5062141;28;20032;-61
2023/10/04 11:27:40;;;;;;;6.15;1.67;;;20.90;49.00;;;;;;5073453;28;20028;-61
2023/10/04 11:30:09;;;;;;;6.45;1.58;;;20.90;49.30;;;;;;5064870;28;20027;-62
2023/10/04 11:32:35;;;;;;;3.50;1.50;;;21.00;49.70;;;;;;5062965;28;20351;-62
2023/10/04 11:35:08;;;;;;;2.53;1.20;;;21.10;49.30;;;;;;5069660;28;20030;-61
2023/10/04 11:37:41;;;;;;;5.22;1.90;;;21.20;49.30;;;;;;5060024;28;20033;-62
2023/10/04 11:40:10;;;;;;;5.30;1.80;;;21.40;49.50;;;;;;4993841;28;20023;-63
2023/10/04 11:42:36;;;;;;;3.88;1.60;;;21.50;48.80;;;;;;5061971;28;20123;-64
2023/10/04 11:45:15;;;;;;;5.57;2.08;;;21.60;48.40;;;;;;5058078;28;20021;-61
2023/10/04 11:47:41;;;;;;;20.35;2.33;;;21.60;48.00;;;;;;5056526;28;20028;-61
2023/10/04 11:50:10;;;;;;;5.75;1.67;;;21.60;47.70;;;;;;5061095;28;20476;-61
2023/10/04 11:52:36;;;;;;;2.58;1.38;;;21.60;47.50;;;;;;5063944;28;20392;-62
2023/10/04 11:55:02;;;;;;;2.35;1.25;;;21.60;47.20;;;;;;5056299;28;20024;-61
2023/10/04 11:57:31;;;;;;;2.80;1.60;;;21.50;47.60;;;;;;5055140;28;20397;-61
2023/10/04 11:59:57;;;;;;;3.20;1.60;;;21.50;47.50;;;;;;5057456;28;20115;-63
2023/10/04 12:02:25;;;;;;;4.10;1.73;;;21.50;47.60;;;;;;5061422;28;20610;-62
2023/10/04 12:04:51;;;;;;;6.50;1.48;;;21.50;46.60;;;;;;5060453;28;20484;-62
2023/10/04 12:07:17;;;;;;;3.75;1.50;;;21.50;46.40;;;;;;5059439;28;20025;-61
2023/10/04 12:09:43;;;;;;;3.58;1.70;;;21.40;46.70;;;;;;5055766;28;20040;-62
2023/10/04 12:12:09;;;;;;;2.40;1.40;;;21.40;47.20;;;;;;5059168;28;20067;-61
2023/10/04 12:14:35;;;;;;;8.82;1.83;;;21.30;47.20;;;;;;5060240;28;20047;-62
2023/10/04 12:17:04;;;;;;;5.88;2.00;;;21.40;47.30;;;;;;5057962;28;20074;-63
2023/10/04 12:19:31;;;;;;;4.00;1.73;;;21.40;45.70;;;;;;5066374;28;20033;-63
2023/10/04 12:22:02;;;;;;;3.42;1.83;;;21.40;44.90;;;;;;5064966;28;20029;-62
2023/10/04 12:24:31;;;;;;;5.50;1.85;;;21.40;45.10;;;;;;5062102;28;20476;-62
2023/10/04 12:26:58;;;;;;;4.70;1.70;;;21.40;45.10;;;;;;5071858;28;20074;-62
2023/10/04 12:29:27;;;;;;;3.35;1.75;;;21.40;45.40;;;;;;5077512;28;20094;-61
2023/10/04 12:31:53;;;;;;;3.33;1.70;;;21.40;46.00;;;;;;5064671;28;20272;-61
2023/10/04 12:34:20;;;;;;;4.00;1.45;;;21.40;45.40;;;;;;5071369;28;20032;-62
2023/10/04 12:36:46;;;;;;;4.95;2.00;;;21.50;45.90;;;;;;5065330;28;20024;-61
2023/10/04 12:39:15;;;;;;;2.95;1.30;;;21.60;46.60;;;;;;5008827;28;20043;-62
2023/10/04 12:41:41;;;;;;;4.43;1.65;;;21.70;45.00;;;;;;5059253;28;20050;-62
2023/10/04 12:44:08;;;;;;;1.92;1.40;;;21.80;45.30;;;;;;5061530;28;20033;-62
2023/10/04 12:46:34;;;;;;;4.68;1.50;;;21.90;45.70;;;;;;5063987;28;20024;-61
2023/10/04 12:49:01;;;;;;;5.15;1.70;;;22.00;45.80;;;;;;5064071;28;20025;-61
2023/10/04 12:51:29;;;;;;;2.90;1.38;;;22.10;45.30;;;;;;5069314;28;20043;-61
2023/10/04 12:53:54;;;;;;;3.70;1.50;;;22.20;45.30;;;;;;5060307;28;20497;-61
2023/10/04 12:56:20;;;;;;;2.95;1.63;;;22.40;44.90;;;;;;5057357;28;20028;-61
2023/10/04 12:58:47;;;;;;;3.03;1.60;;;22.40;43.90;;;;;;5061976;28;20534;-61
2023/10/04 13:01:18;;;;;;;2.65;1.73;;;22.50;44.10;;;;;;5069066;28;20025;-62
2023/10/04 13:03:44;;;;;;;5.10;1.83;;;22.50;43.20;;;;;;5063479;28;20434;-61
2023/10/04 13:06:14;;;;;;;2.30;1.35;;;22.50;43.00;;;;;;5058928;28;20039;-61
2023/10/04 13:08:44;;;;;;;6.25;1.50;;;22.50;43.50;;;;;;5066822;28;20526;-61
2023/10/04 13:11:14;;;;;;;4.43;1.67;;;22.50;43.60;;;;;;5074247;28;20036;-62
2023/10/04 13:13:40;;;;;;;4.80;1.60;;;22.50;42.50;;;;;;5064222;28;20025;-62
2023/10/04 13:16:07;;;;;;;4.50;1.70;;;22.60;42.80;;;;;;5061510;28;20551;-62
2023/10/04 13:18:34;;;;;;;5.80;1.63;;;22.60;42.70;;;;;;5063774;28;20032;-62